createdAt,value
2019-05-15T00:02:18.440Z,66.10
2019-05-15T00:04:49.008Z,66.90
2019-05-15T00:07:18.297Z,66.90
2019-05-15T00:09:50.485Z,67.90
2019-05-15T00:12:18.892Z,68.20
2019-05-15T00:14:48.436Z,68.00
2019-05-15T00:17:16.186Z,67.70
2019-05-15T00:19:43.879Z,69.30
2019-05-15T00:22:12.035Z,67.10
2019-05-15T00:24:39.348Z,69.50
2019-05-15T00:27:13.381Z,69.30
2019-05-15T00:29:44.162Z,70.00
2019-05-15T00:32:11.917Z,72.40
2019-05-15T00:34:39.506Z,71.90
2019-05-15T00:37:08.947Z,70.70
2019-05-15T00:39:36.272Z,70.70
2019-05-15T00:42:05.073Z,70.90
2019-05-15T00:44:33.066Z,71.80
2019-05-15T00:47:03.447Z,71.20
2019-05-15T00:49:32.518Z,71.60
2019-05-15T00:52:01.248Z,71.80
2019-05-15T00:54:31.022Z,72.40
2019-05-15T00:56:58.811Z,72.40
2019-05-15T00:59:29.745Z,73.00
2019-05-15T01:01:55.672Z,71.20
2019-05-15T01:04:22.993Z,71.50
2019-05-15T01:06:52.669Z,71.30
2019-05-15T01:09:20.627Z,70.80
2019-05-15T01:11:48.883Z,72.70
2019-05-15T01:14:18.537Z,72.10
2019-05-15T01:16:48.993Z,71.40
2019-05-15T01:19:18.522Z,71.00
2019-05-15T01:21:48.120Z,72.00
2019-05-15T01:24:15.874Z,69.90
2019-05-15T01:26:43.330Z,73.00
2019-05-15T01:29:11.810Z,72.60
2019-05-15T01:31:41.906Z,70.70
2019-05-15T01:34:09.452Z,71.10
2019-05-15T01:36:38.227Z,72.10
2019-05-15T01:39:07.970Z,71.60
2019-05-15T01:41:40.481Z,73.40
2019-05-15T01:44:09.259Z,73.30
2019-05-15T01:46:39.284Z,73.00
2019-05-15T01:49:08.022Z,73.30
2019-05-15T01:51:35.856Z,75.20
2019-05-15T01:54:04.222Z,74.40
2019-05-15T01:56:32.746Z,75.10
2019-05-15T01:59:08.692Z,74.70
2019-05-15T02:01:38.936Z,75.30
2019-05-15T02:04:05.593Z,75.40
2019-05-15T02:06:38.900Z,75.40
2019-05-15T02:09:10.910Z,73.50
2019-05-15T02:11:38.642Z,74.20
2019-05-15T02:14:08.245Z,75.80
2019-05-15T02:16:35.726Z,74.80
2019-05-15T02:19:03.273Z,75.20
2019-05-15T02:21:31.569Z,73.80
2019-05-15T02:23:59.226Z,74.80
2019-05-15T02:26:28.202Z,73.70
2019-05-15T02:28:55.980Z,75.60
2019-05-15T02:31:30.663Z,74.70
2019-05-15T02:34:00.592Z,75.40
2019-05-15T02:36:29.271Z,75.30
2019-05-15T02:38:59.708Z,75.80
2019-05-15T02:41:32.817Z,75.70
2019-05-15T02:44:00.632Z,76.00
2019-05-15T02:46:30.043Z,75.70
2019-05-15T02:48:59.191Z,75.30
2019-05-15T02:51:29.826Z,75.40
2019-05-15T02:53:58.618Z,75.30
2019-05-15T02:56:29.087Z,74.90
2019-05-15T02:59:00.215Z,73.40
2019-05-15T03:01:28.533Z,74.10
2019-05-15T03:03:59.433Z,74.40
2019-05-15T03:06:29.555Z,74.80
2019-05-15T03:08:56.106Z,75.70
2019-05-15T03:11:24.287Z,75.10
2019-05-15T03:13:51.668Z,74.80
2019-05-15T03:16:19.662Z,74.80
2019-05-15T03:18:50.543Z,75.80
2019-05-15T03:21:18.745Z,74.90
2019-05-15T03:23:50.421Z,74.80
2019-05-15T03:26:19.825Z,75.40
2019-05-15T03:28:49.366Z,75.40
2019-05-15T03:31:35.186Z,75.80
2019-05-15T03:33:47.261Z,75.60
2019-05-15T03:36:15.335Z,75.50
2019-05-15T03:38:43.090Z,75.40
2019-05-15T03:41:10.798Z,75.90
2019-05-15T03:43:49.357Z,75.50
2019-05-15T03:46:15.719Z,76.20
2019-05-15T03:48:48.544Z,75.40
2019-05-15T03:51:15.915Z,74.90
2019-05-15T03:53:43.987Z,75.00
2019-05-15T03:56:11.974Z,75.50
2019-05-15T03:58:40.554Z,75.00
2019-05-15T04:01:28.316Z,74.60
2019-05-15T04:03:44.259Z,75.00
2019-05-15T04:06:11.465Z,76.20
2019-05-15T04:08:39.422Z,76.50
2019-05-15T04:11:09.245Z,75.30
2019-05-15T04:13:39.828Z,74.80
2019-05-15T04:16:10.356Z,74.30
2019-05-15T04:18:39.561Z,74.40
2019-05-15T04:21:09.209Z,75.30
2019-05-15T04:23:39.226Z,75.70
2019-05-15T04:26:08.945Z,75.70
2019-05-15T04:28:35.266Z,74.50
2019-05-15T04:31:02.671Z,74.30
2019-05-15T04:33:30.351Z,76.50
2019-05-15T04:35:59.088Z,77.60
2019-05-15T04:38:29.193Z,74.80
2019-05-15T04:40:59.073Z,75.00
2019-05-15T04:43:29.192Z,76.60
2019-05-15T04:45:59.264Z,76.90
2019-05-15T04:48:24.797Z,75.70
2019-05-15T04:50:52.339Z,75.70
2019-05-15T04:53:20.033Z,75.30
2019-05-15T04:55:49.204Z,76.00
2019-05-15T04:58:20.912Z,74.50
2019-05-15T05:00:50.234Z,75.00
2019-05-15T05:03:22.409Z,74.60
2019-05-15T05:05:50.442Z,74.10
2019-05-15T05:08:20.017Z,75.00
2019-05-15T05:10:49.084Z,74.50
2019-05-15T05:13:19.813Z,73.70
2019-05-15T05:15:50.345Z,73.00
2019-05-15T05:18:18.981Z,73.20
2019-05-15T05:20:48.508Z,72.10
2019-05-15T05:23:19.279Z,72.50
2019-05-15T05:25:57.966Z,71.20
2019-05-15T05:28:28.980Z,70.10
2019-05-15T05:30:58.759Z,69.60
2019-05-15T05:33:28.447Z,69.20
2019-05-15T05:36:01.291Z,69.20
2019-05-15T05:38:29.830Z,64.90
2019-05-15T05:40:58.623Z,63.90
2019-05-15T05:43:33.420Z,64.20
2019-05-15T05:46:01.291Z,63.30
2019-05-15T05:48:33.172Z,62.80
2019-05-15T05:51:04.052Z,60.40
2019-05-15T05:53:31.753Z,61.30
2019-05-15T05:55:59.344Z,58.80
2019-05-15T05:58:29.753Z,59.50
2019-05-15T06:00:58.628Z,58.10
2019-05-15T06:03:28.105Z,56.60
2019-05-15T06:08:32.320Z,56.50
2019-05-15T06:11:00.793Z,55.70
2019-05-15T06:13:29.062Z,55.50
2019-05-15T06:15:59.047Z,54.80
2019-05-15T06:18:28.182Z,56.50
2019-05-15T06:20:58.699Z,53.80
2019-05-15T06:23:33.698Z,53.60
2019-05-15T06:25:59.240Z,53.10
2019-05-15T06:28:29.510Z,53.80
2019-05-15T06:31:00.743Z,52.30
2019-05-15T06:33:28.698Z,49.90
2019-05-15T06:35:59.204Z,51.60
2019-05-15T06:38:30.869Z,50.30
2019-05-15T06:40:59.235Z,44.60
2019-05-15T06:43:28.129Z,47.30
2019-05-15T06:45:55.420Z,44.80
2019-05-15T06:48:23.451Z,43.30
2019-05-15T06:50:50.874Z,42.50
2019-05-15T06:53:24.702Z,40.20
2019-05-15T06:55:52.185Z,41.30
2019-05-15T06:58:20.125Z,41.60
2019-05-15T07:00:48.810Z,41.90
2019-05-15T07:03:24.807Z,41.80
2019-05-15T07:05:46.111Z,41.30
2019-05-15T07:08:13.622Z,39.00
2019-05-15T07:10:41.239Z,40.30
2019-05-15T07:13:08.938Z,37.90
2019-05-15T07:15:38.380Z,39.00
2019-05-15T07:18:05.856Z,39.30
2019-05-15T07:20:33.463Z,38.50
2019-05-15T07:23:01.348Z,37.50
2019-05-15T07:25:39.813Z,38.20
2019-05-15T07:28:08.833Z,37.00
2019-05-15T07:30:41.229Z,37.80
2019-05-15T07:33:08.852Z,34.50
2019-05-15T07:35:38.456Z,33.80
2019-05-15T07:38:08.076Z,34.10
2019-05-15T07:40:38.324Z,35.40
2019-05-15T07:43:04.967Z,36.50
2019-05-15T07:45:32.528Z,33.00
2019-05-15T07:48:00.111Z,33.40
2019-05-15T07:50:29.935Z,33.40
2019-05-15T07:52:59.077Z,34.00
2019-05-15T07:55:29.670Z,31.70
2019-05-15T07:57:59.146Z,30.90
2019-05-15T08:00:28.832Z,32.30
2019-05-15T08:02:58.493Z,30.00
2019-05-15T08:05:28.427Z,29.50
2019-05-15T08:07:55.423Z,29.70
2019-05-15T08:10:23.262Z,28.80
2019-05-15T08:12:51.173Z,28.70
2019-05-15T08:15:21.845Z,28.30
2019-05-15T08:18:03.995Z,27.90
2019-05-15T08:20:18.924Z,28.30
2019-05-15T08:22:48.697Z,29.20
2019-05-15T08:25:28.245Z,28.40
2019-05-15T08:27:48.280Z,25.90
2019-05-15T08:30:14.659Z,27.70
2019-05-15T08:32:43.075Z,26.00
2019-05-15T08:35:12.655Z,26.10
2019-05-15T08:37:43.236Z,25.70
2019-05-15T08:40:12.291Z,26.60
2019-05-15T08:42:44.064Z,25.90
2019-05-15T08:45:11.901Z,26.60
2019-05-15T08:47:40.384Z,24.50
2019-05-15T08:50:08.963Z,23.60
2019-05-15T08:52:39.096Z,23.50
2019-05-15T08:55:08.557Z,24.60
2019-05-15T08:57:38.319Z,25.10
2019-05-15T09:00:06.247Z,24.30
2019-05-15T09:02:40.573Z,23.90
2019-05-15T09:05:08.456Z,25.00
2019-05-15T09:07:38.323Z,23.90
2019-05-15T09:10:06.100Z,23.70
2019-05-15T09:12:33.674Z,24.60
2019-05-15T09:15:02.417Z,23.10
2019-05-15T09:17:30.112Z,21.50
2019-05-15T09:19:58.810Z,23.70
2019-05-15T09:22:26.272Z,21.60
2019-05-15T09:24:54.348Z,23.50
2019-05-15T09:27:25.032Z,22.70
2019-05-15T09:29:52.511Z,23.80
2019-05-15T09:32:20.080Z,22.70
2019-05-15T09:34:54.949Z,24.00
2019-05-15T09:37:18.062Z,21.70
2019-05-15T09:39:45.886Z,23.40
2019-05-15T09:42:17.837Z,22.20
2019-05-15T09:44:44.838Z,22.10
2019-05-15T09:47:12.356Z,20.90
2019-05-15T09:49:39.780Z,20.20
2019-05-15T09:52:19.984Z,21.40
2019-05-15T09:54:45.641Z,21.40
2019-05-15T09:57:18.597Z,20.90
2019-05-15T09:59:48.995Z,21.10
2019-05-15T10:02:18.747Z,21.50
2019-05-15T10:04:48.195Z,22.30
2019-05-15T10:07:15.150Z,23.20
2019-05-15T10:09:43.008Z,20.40
2019-05-15T10:12:10.378Z,18.90
2019-05-15T10:14:41.942Z,20.30
2019-05-15T10:17:09.847Z,21.50
2019-05-15T10:19:38.584Z,18.90
2019-05-15T10:22:09.512Z,18.20
2019-05-15T10:24:35.373Z,19.10
2019-05-15T10:27:03.202Z,19.00
2019-05-15T10:29:30.790Z,18.90
2019-05-15T10:31:58.359Z,18.10
2019-05-15T10:34:30.886Z,19.30
2019-05-15T10:36:58.878Z,19.70
2019-05-15T10:39:31.217Z,20.20
2019-05-15T10:41:59.877Z,19.90
2019-05-15T10:44:33.337Z,20.90
2019-05-15T10:47:01.128Z,18.40
2019-05-15T10:49:32.883Z,20.30
2019-05-15T10:52:01.433Z,18.90
2019-05-15T10:54:30.175Z,18.50
2019-05-15T10:57:00.426Z,17.30
2019-05-15T10:59:27.694Z,19.60
2019-05-15T11:01:55.773Z,17.90
2019-05-15T11:04:25.513Z,19.00
2019-05-15T11:06:53.289Z,19.80
2019-05-15T11:09:20.963Z,21.00
2019-05-15T11:11:51.483Z,21.30
2019-05-15T11:14:20.209Z,17.70
2019-05-15T11:16:52.419Z,18.20
2019-05-15T11:19:21.002Z,18.10
2019-05-15T11:21:49.406Z,18.40
2019-05-15T11:24:19.686Z,19.10
2019-05-15T11:26:49.995Z,18.40
2019-05-15T11:29:16.790Z,19.20
2019-05-15T11:31:45.327Z,19.40
2019-05-15T11:34:13.011Z,19.10
2019-05-15T11:36:42.912Z,21.60
2019-05-15T11:39:10.650Z,19.10
2019-05-15T11:41:38.788Z,19.30
2019-05-15T11:44:06.470Z,18.80
2019-05-15T11:46:34.153Z,17.80
2019-05-15T11:49:04.067Z,19.00
2019-05-15T11:51:32.517Z,18.30
2019-05-15T11:54:03.136Z,18.30
2019-05-15T11:56:30.861Z,17.60
2019-05-15T11:58:59.110Z,20.10
2019-05-15T12:01:28.707Z,17.40
2019-05-15T12:03:58.582Z,18.80
2019-05-15T12:06:28.628Z,17.80
2019-05-15T12:08:58.824Z,19.40
2019-05-15T12:11:33.387Z,19.70
2019-05-15T12:13:55.251Z,18.90
2019-05-15T12:16:23.987Z,18.20
2019-05-15T12:18:51.551Z,18.40
2019-05-15T12:21:19.968Z,21.00
2019-05-15T12:23:48.819Z,18.50
2019-05-15T12:26:16.785Z,19.80
2019-05-15T12:28:44.365Z,20.10
2019-05-15T12:31:14.074Z,18.10
2019-05-15T12:33:44.301Z,17.50
2019-05-15T12:36:13.674Z,19.70
2019-05-15T12:38:41.585Z,22.10
2019-05-15T13:01:17.492Z,18.70
2019-05-15T13:03:38.292Z,20.90
2019-05-15T13:06:08.069Z,18.90
2019-05-15T13:08:38.290Z,20.60
2019-05-15T13:11:09.492Z,19.50
2019-05-15T13:13:34.456Z,20.60
2019-05-15T13:16:02.722Z,23.10
2019-05-15T13:18:31.149Z,18.50
2019-05-15T13:21:01.057Z,20.40
2019-05-15T13:23:28.825Z,19.10
2019-05-15T13:25:59.281Z,20.00
2019-05-15T13:28:29.074Z,20.80
2019-05-15T13:30:59.077Z,20.50
2019-05-15T13:33:26.259Z,20.90
2019-05-15T13:35:53.790Z,20.20
2019-05-15T13:38:21.459Z,20.60
2019-05-15T13:40:49.193Z,20.30
2019-05-15T13:43:18.611Z,21.50
2019-05-15T13:45:46.241Z,20.10
2019-05-15T13:48:16.621Z,24.80
2019-05-15T13:50:44.459Z,21.10
2019-05-15T13:53:11.852Z,20.50
2019-05-15T13:55:42.303Z,20.50
2019-05-15T13:58:09.693Z,20.60
2019-05-15T14:00:39.125Z,21.70
2019-05-15T14:03:08.701Z,20.60
2019-05-15T14:05:38.090Z,20.10
2019-05-15T14:08:05.281Z,20.50
2019-05-15T14:10:38.274Z,20.30
2019-05-15T14:13:07.415Z,21.90
2019-05-15T14:15:34.925Z,22.10
2019-05-15T14:18:04.551Z,22.40
2019-05-15T14:20:32.099Z,21.00
2019-05-15T14:22:59.720Z,23.50
2019-05-15T14:25:27.392Z,20.60
2019-05-15T14:27:54.955Z,20.40
2019-05-15T14:30:22.613Z,23.10
2019-05-15T14:32:50.277Z,21.20
2019-05-15T14:35:18.069Z,22.00
2019-05-15T14:38:01.868Z,21.80
2019-05-15T14:40:17.765Z,21.40
2019-05-15T14:42:48.619Z,21.80
2019-05-15T14:45:18.906Z,21.70
2019-05-15T14:47:48.594Z,23.00
2019-05-15T14:50:16.203Z,23.00
2019-05-15T14:52:45.053Z,22.80
2019-05-15T14:55:13.955Z,23.30
2019-05-15T14:57:43.270Z,22.60
2019-05-15T15:00:10.859Z,23.80
2019-05-15T15:02:44.705Z,22.30
2019-05-15T15:05:12.108Z,22.00
2019-05-15T15:07:39.749Z,21.00
2019-05-15T15:10:08.056Z,21.90
2019-05-15T15:12:35.572Z,22.80
2019-05-15T15:15:05.062Z,21.70
2019-05-15T15:17:32.841Z,24.00
2019-05-15T15:20:01.077Z,23.60
2019-05-15T15:22:31.993Z,24.50
2019-05-15T15:25:00.017Z,25.30
2019-05-15T15:27:28.091Z,25.60
2019-05-15T15:29:59.137Z,25.40
2019-05-15T15:32:30.127Z,23.00
2019-05-15T15:35:08.428Z,24.00
2019-05-15T15:37:38.299Z,23.60
2019-05-15T15:40:08.297Z,24.60
2019-05-15T15:42:36.162Z,24.20
2019-05-15T15:45:08.801Z,23.80
2019-05-15T15:47:41.790Z,25.10
2019-05-15T15:50:10.005Z,24.90
2019-05-15T15:52:41.760Z,23.90
2019-05-15T15:55:09.647Z,26.40
2019-05-15T15:57:39.592Z,25.30
2019-05-15T16:00:10.792Z,25.80
2019-05-15T16:02:41.135Z,25.60
2019-05-15T16:05:08.186Z,26.00
2019-05-15T16:07:37.946Z,25.60
2019-05-15T16:10:08.275Z,26.90
2019-05-15T16:12:35.095Z,25.80
2019-05-15T16:15:09.322Z,27.40
2019-05-15T16:17:38.493Z,26.20
2019-05-15T16:20:10.247Z,26.20
2019-05-15T16:22:42.976Z,26.40
2019-05-15T16:25:17.896Z,26.80
2019-05-15T16:27:52.677Z,27.50
2019-05-15T16:30:20.806Z,27.30
2019-05-15T16:32:48.451Z,27.40
2019-05-15T16:35:18.299Z,26.70
2019-05-15T16:37:45.967Z,27.60
2019-05-15T16:40:18.196Z,27.50
2019-05-15T16:42:45.254Z,27.50
2019-05-15T16:45:12.951Z,27.80
2019-05-15T16:47:41.662Z,28.90
2019-05-15T16:50:09.421Z,27.50
2019-05-15T16:52:38.732Z,29.00
2019-05-15T16:55:09.231Z,28.40
2019-05-15T16:57:38.580Z,27.20
2019-05-15T17:00:06.114Z,30.80
2019-05-15T17:02:34.245Z,30.00
2019-05-15T17:05:02.138Z,30.50
2019-05-15T17:07:42.962Z,30.90
2019-05-15T17:10:10.914Z,32.50
2019-05-15T17:12:39.339Z,33.10
2019-05-15T17:15:08.490Z,32.60
2019-05-15T17:17:38.711Z,33.20
2019-05-15T17:20:06.530Z,33.70
2019-05-15T17:22:34.055Z,32.60
2019-05-15T17:25:01.740Z,33.00
2019-05-15T17:27:29.121Z,34.00
2019-05-15T17:29:58.409Z,34.30
2019-05-15T17:32:25.827Z,34.40
2019-05-15T17:34:53.911Z,34.00
2019-05-15T17:37:21.575Z,34.50
2019-05-15T17:39:49.264Z,35.50
2019-05-15T17:42:18.265Z,35.00
2019-05-15T17:44:45.893Z,34.50
2019-05-15T17:47:13.374Z,35.30
2019-05-15T17:49:42.138Z,34.80
2019-05-15T17:52:11.152Z,35.60
2019-05-15T17:54:38.628Z,35.30
2019-05-15T17:57:09.029Z,35.80
2019-05-15T17:59:37.836Z,35.30
2019-05-15T18:02:05.422Z,35.60
2019-05-15T18:04:34.177Z,35.30
2019-05-15T18:07:04.016Z,37.30
2019-05-15T18:09:31.829Z,35.50
2019-05-15T18:11:59.539Z,37.10
2019-05-15T18:14:27.010Z,36.40
2019-05-15T18:16:55.193Z,37.10
2019-05-15T18:19:24.747Z,36.80
2019-05-15T18:21:59.082Z,36.50
2019-05-15T18:24:29.319Z,37.40
2019-05-15T18:26:59.181Z,37.40
2019-05-15T18:29:27.155Z,37.90
2019-05-15T18:31:57.790Z,38.30
2019-05-15T18:34:25.704Z,38.00
2019-05-15T18:36:53.741Z,38.60
2019-05-15T18:39:23.661Z,39.00
2019-05-15T18:41:51.402Z,38.60
2019-05-15T18:44:19.169Z,39.30
2019-05-15T18:46:48.973Z,39.70
2019-05-15T18:49:17.948Z,40.70
2019-05-15T18:51:48.087Z,40.50
2019-05-15T18:54:18.872Z,41.20
2019-05-15T18:56:48.810Z,41.60
2019-05-15T18:59:17.721Z,42.20
2019-05-15T19:01:47.985Z,42.80
2019-05-15T19:04:18.141Z,43.30
2019-05-15T19:06:45.266Z,43.30
2019-05-15T19:09:13.652Z,43.70
2019-05-15T19:11:41.433Z,43.70
2019-05-15T19:14:08.955Z,44.20
2019-05-15T19:16:38.762Z,44.10
2019-05-15T19:19:08.486Z,44.10
2019-05-15T19:21:38.272Z,44.50
2019-05-15T19:24:07.743Z,44.70
2019-05-15T19:26:35.431Z,45.10
2019-05-15T19:29:04.893Z,44.50
2019-05-15T19:31:32.776Z,44.40
2019-05-15T19:34:00.440Z,45.10
2019-05-15T19:36:29.516Z,44.80
2019-05-15T19:39:02.092Z,45.30
2019-05-15T19:41:31.055Z,44.90
2019-05-15T19:43:58.816Z,44.70
2019-05-15T19:46:28.895Z,44.50
2019-05-15T19:48:58.696Z,44.50
2019-05-15T19:51:31.005Z,45.20
2019-05-15T19:54:00.324Z,44.80
2019-05-15T19:56:28.636Z,45.80
2019-05-15T19:58:58.423Z,45.70
2019-05-15T20:01:28.249Z,46.20
2019-05-15T20:03:58.192Z,46.30
2019-05-15T20:06:28.102Z,46.70
2019-05-15T20:08:58.466Z,47.10
2019-05-15T20:11:27.927Z,47.40
2019-05-15T20:13:58.144Z,48.00
2019-05-15T20:16:28.176Z,46.50
2019-05-15T20:18:58.037Z,47.40
2019-05-15T20:21:25.685Z,48.10
2019-05-15T20:23:57.866Z,48.40
2019-05-15T20:26:25.285Z,49.00
2019-05-15T20:28:53.030Z,48.70
2019-05-15T20:31:21.022Z,49.30
2019-05-15T20:34:02.211Z,49.50
2019-05-15T20:36:19.356Z,50.00
2019-05-15T20:38:48.355Z,49.70
2019-05-15T20:41:18.525Z,49.80
2019-05-15T20:43:49.071Z,50.20
2019-05-15T20:46:19.019Z,51.10
2019-05-15T20:48:48.718Z,50.90
2019-05-15T20:51:18.562Z,51.00
2019-05-15T20:53:48.216Z,51.60
2019-05-15T20:56:16.334Z,51.30
2019-05-15T20:58:45.168Z,51.80
2019-05-15T21:01:13.835Z,51.90
2019-05-15T21:03:41.492Z,51.90
2019-05-15T21:06:10.802Z,52.00
2019-05-15T21:08:39.818Z,52.40
2019-05-15T21:11:11.565Z,52.60
2019-05-15T21:13:38.372Z,52.90
2019-05-15T21:16:08.273Z,52.70
2019-05-15T21:18:37.863Z,53.20
2019-05-15T21:21:05.111Z,53.80
2019-05-15T21:23:32.780Z,53.20
2019-05-15T21:26:00.631Z,53.70
2019-05-15T21:28:30.077Z,53.60
2019-05-15T21:31:00.992Z,53.90
2019-05-15T21:33:36.229Z,54.20
2019-05-15T21:36:07.856Z,54.10
2019-05-15T21:38:35.254Z,54.00
2019-05-15T21:41:02.830Z,54.40
2019-05-15T21:43:30.365Z,54.50
2019-05-15T21:45:59.271Z,54.20
2019-05-15T21:48:28.747Z,54.80
2019-05-15T21:50:57.531Z,55.00
2019-05-15T21:53:25.728Z,55.40
2019-05-15T21:55:54.149Z,55.10
2019-05-15T21:58:21.609Z,55.70
2019-05-15T22:00:51.922Z,55.40
2019-05-15T22:03:19.818Z,55.40
2019-05-15T22:05:48.773Z,55.70
2019-05-15T22:08:18.432Z,56.20
2019-05-15T22:10:48.226Z,55.20
2019-05-15T22:13:15.866Z,56.20
2019-05-15T22:15:43.464Z,56.40
2019-05-15T22:18:11.693Z,56.50
2019-05-15T22:20:39.542Z,56.20
2019-05-15T22:23:08.239Z,56.90
2019-05-15T22:25:38.405Z,56.40
2019-05-15T22:28:06.665Z,57.10
2019-05-15T22:30:34.140Z,56.80
2019-05-15T22:33:02.930Z,57.40
2019-05-15T22:35:31.333Z,57.00
2019-05-15T22:38:00.193Z,57.30
2019-05-15T22:40:31.099Z,57.50
2019-05-15T22:42:59.314Z,57.60
2019-05-15T22:45:28.677Z,57.30
2019-05-15T22:47:58.454Z,57.60
2019-05-15T22:50:27.851Z,57.80
2019-05-15T22:52:58.391Z,57.10
2019-05-15T22:55:29.193Z,58.20
2019-05-15T22:57:59.570Z,58.40
2019-05-15T23:00:28.879Z,57.60
2019-05-15T23:02:58.017Z,57.70
2019-05-15T23:05:30.982Z,58.40
2019-05-15T23:07:54.963Z,58.40
2019-05-15T23:10:22.503Z,57.50
2019-05-15T23:12:50.244Z,58.90
2019-05-15T23:15:18.983Z,58.50
2019-05-15T23:17:48.588Z,57.90
2019-05-15T23:20:17.747Z,58.70
2019-05-15T23:22:46.360Z,58.60
2019-05-15T23:25:14.019Z,58.50
2019-05-15T23:27:41.717Z,58.40
2019-05-15T23:30:09.298Z,59.20
2019-05-15T23:32:39.746Z,58.40
2019-05-15T23:35:07.393Z,58.40
2019-05-15T23:37:34.944Z,58.40
2019-05-15T23:40:02.436Z,59.20
2019-05-15T23:42:30.156Z,61.90
2019-05-15T23:44:58.745Z,59.80
2019-05-15T23:47:28.607Z,61.50
2019-05-15T23:49:57.844Z,58.90
2019-05-15T23:52:25.728Z,59.90
2019-05-15T23:54:59.051Z,59.40
2019-05-15T23:57:28.694Z,58.90
2019-05-15T23:59:56.426Z,59.90
